createdAt,value
2022-09-06T00:01:05.928Z,21.51
2022-09-06T00:03:08.334Z,21.49
2022-09-06T00:05:09.778Z,21.51
2022-09-06T00:07:11.112Z,21.52
2022-09-06T00:09:12.427Z,21.51
2022-09-06T00:11:13.806Z,21.49
2022-09-06T00:13:15.157Z,21.50
2022-09-06T00:15:16.633Z,21.48
2022-09-06T00:17:17.954Z,21.47
2022-09-06T00:19:19.262Z,21.45
2022-09-06T00:21:20.632Z,21.45
2022-09-06T00:23:21.941Z,21.45
2022-09-06T00:25:23.251Z,21.44
2022-09-06T00:27:24.743Z,21.43
2022-09-06T00:29:26.091Z,21.43
2022-09-06T00:31:27.517Z,21.42
2022-09-06T00:33:28.855Z,21.41
2022-09-06T00:35:30.264Z,21.42
2022-09-06T00:37:31.608Z,21.41
2022-09-06T00:39:32.998Z,21.41
2022-09-06T00:41:34.390Z,21.43
2022-09-06T00:43:35.702Z,21.42
2022-09-06T00:45:37.111Z,21.42
2022-09-06T00:47:38.940Z,21.41
2022-09-06T00:49:40.241Z,21.40
2022-09-06T00:51:41.562Z,21.40
2022-09-06T00:53:42.894Z,21.48
2022-09-06T00:55:44.371Z,21.50
2022-09-06T00:57:46.626Z,21.51
2022-09-06T00:59:47.936Z,21.51
2022-09-06T01:01:49.340Z,21.50
2022-09-06T01:03:50.730Z,21.49
2022-09-06T01:05:54.527Z,21.49
2022-09-06T01:07:56.069Z,21.50
2022-09-06T01:09:57.396Z,21.50
2022-09-06T01:11:58.723Z,21.49
2022-09-06T01:14:00.094Z,21.50
2022-09-06T01:16:01.499Z,21.52
2022-09-06T01:18:03.023Z,21.50
2022-09-06T01:20:05.114Z,21.46
2022-09-06T01:22:06.424Z,21.45
2022-09-06T01:24:07.722Z,21.43
2022-09-06T01:26:09.116Z,21.42
2022-09-06T01:28:10.491Z,21.41
2022-09-06T01:30:12.740Z,21.41
2022-09-06T01:32:14.063Z,21.40
2022-09-06T01:34:15.386Z,21.39
2022-09-06T01:36:16.707Z,21.40
2022-09-06T01:38:18.032Z,21.39
2022-09-06T01:40:19.331Z,21.36
2022-09-06T01:42:20.799Z,21.38
2022-09-06T01:44:22.192Z,21.37
2022-09-06T01:46:23.568Z,21.38
2022-09-06T01:48:25.183Z,21.36
2022-09-06T01:50:26.537Z,21.35
2022-09-06T01:52:27.854Z,21.33
2022-09-06T01:54:29.188Z,21.30
2022-09-06T01:56:30.563Z,21.30
2022-09-06T01:58:31.878Z,21.30
2022-09-06T02:00:33.255Z,21.34
2022-09-06T02:02:34.617Z,21.33
2022-09-06T02:04:36.049Z,21.35
2022-09-06T02:06:37.363Z,21.36
2022-09-06T02:08:38.683Z,21.39
2022-09-06T02:10:39.991Z,21.39
2022-09-06T02:12:41.347Z,21.40
2022-09-06T02:14:42.658Z,21.40
2022-09-06T02:16:44.066Z,21.40
2022-09-06T02:18:45.448Z,21.39
2022-09-06T02:20:48.039Z,21.36
2022-09-06T02:22:49.463Z,21.34
2022-09-06T02:24:50.838Z,21.33
2022-09-06T02:26:52.158Z,21.32
2022-09-06T02:28:53.471Z,21.31
2022-09-06T02:30:54.795Z,21.30
2022-09-06T02:32:56.512Z,21.30
2022-09-06T02:34:57.826Z,21.29
2022-09-06T02:36:59.253Z,21.27
2022-09-06T02:39:01.721Z,21.25
2022-09-06T02:41:03.035Z,21.30
2022-09-06T02:43:04.371Z,21.44
2022-09-06T02:45:05.723Z,21.37
2022-09-06T02:47:07.021Z,21.28
2022-09-06T02:49:08.556Z,21.20
2022-09-06T02:51:09.915Z,21.38
2022-09-06T02:53:11.277Z,21.43
2022-09-06T02:55:12.654Z,21.32
2022-09-06T02:57:14.190Z,21.25
2022-09-06T02:59:15.598Z,21.18
2022-09-06T03:01:16.986Z,21.10
2022-09-06T03:03:18.384Z,21.07
2022-09-06T03:05:19.899Z,21.05
2022-09-06T03:07:21.275Z,21.01
2022-09-06T03:09:22.596Z,21.00
2022-09-06T03:11:23.913Z,20.98
2022-09-06T03:13:25.254Z,20.96
2022-09-06T03:15:26.583Z,20.94
2022-09-06T03:17:27.943Z,20.93
2022-09-06T03:19:29.497Z,20.92
2022-09-06T03:21:30.857Z,20.89
2022-09-06T03:23:32.174Z,20.88
2022-09-06T03:25:33.541Z,20.86
2022-09-06T03:27:34.864Z,20.85
2022-09-06T03:29:36.332Z,20.85
2022-09-06T03:31:37.819Z,20.83
2022-09-06T03:33:39.136Z,20.82
2022-09-06T03:35:41.799Z,20.81
2022-09-06T03:37:43.123Z,20.81
2022-09-06T03:39:44.481Z,20.80
2022-09-06T03:41:45.853Z,20.79
2022-09-06T03:43:47.214Z,20.77
2022-09-06T03:45:48.626Z,20.77
2022-09-06T03:47:50.025Z,20.75
2022-09-06T03:49:51.579Z,20.75
2022-09-06T03:51:52.906Z,20.73
2022-09-06T03:53:54.270Z,20.73
2022-09-06T03:55:55.679Z,20.72
2022-09-06T03:57:57.070Z,20.72
2022-09-06T03:59:58.386Z,20.71
2022-09-06T04:01:59.732Z,20.69
2022-09-06T04:04:01.418Z,20.68
2022-09-06T04:06:02.824Z,20.68
2022-09-06T04:08:04.137Z,20.66
2022-09-06T04:10:05.499Z,20.67
2022-09-06T04:12:06.822Z,20.66
2022-09-06T04:14:08.167Z,20.65
2022-09-06T04:16:09.586Z,20.65
2022-09-06T04:18:10.934Z,20.63
2022-09-06T04:20:12.254Z,20.63
2022-09-06T04:22:13.555Z,20.61
2022-09-06T04:24:14.899Z,20.61
2022-09-06T04:26:16.466Z,20.60
2022-09-06T04:28:18.452Z,20.60
2022-09-06T04:30:19.862Z,20.59
2022-09-06T04:32:21.178Z,20.57
2022-09-06T04:34:22.498Z,20.58
2022-09-06T04:36:23.803Z,20.57
2022-09-06T04:38:25.172Z,20.57
2022-09-06T04:40:26.492Z,20.55
2022-09-06T04:42:27.885Z,20.55
2022-09-06T04:44:29.218Z,20.54
2022-09-06T04:46:30.583Z,20.53
2022-09-06T04:48:31.907Z,20.52
2022-09-06T04:50:33.303Z,20.51
2022-09-06T04:52:34.619Z,20.51
2022-09-06T04:54:35.926Z,20.51
2022-09-06T04:56:37.264Z,20.51
2022-09-06T04:58:38.566Z,20.51
2022-09-06T05:00:41.816Z,20.50
2022-09-06T05:02:43.433Z,20.51
2022-09-06T05:04:44.850Z,20.50
2022-09-06T05:06:46.458Z,20.49
2022-09-06T05:08:47.830Z,20.49
2022-09-06T05:10:49.186Z,20.49
2022-09-06T05:12:50.534Z,20.49
2022-09-06T05:14:51.894Z,20.47
2022-09-06T05:16:54.395Z,20.48
2022-09-06T05:18:55.804Z,20.48
2022-09-06T05:20:57.348Z,20.47
2022-09-06T05:22:58.701Z,20.47
2022-09-06T05:25:00.069Z,20.46
2022-09-06T05:27:03.928Z,20.47
2022-09-06T05:29:05.731Z,20.46
2022-09-06T05:31:07.082Z,20.46
2022-09-06T05:33:08.435Z,20.19
2022-09-06T05:35:09.797Z,20.45
2022-09-06T05:37:11.118Z,20.47
2022-09-06T05:39:12.448Z,20.45
2022-09-06T05:41:13.770Z,20.45
2022-09-06T05:43:15.124Z,20.44
2022-09-06T05:45:17.006Z,20.44
2022-09-06T05:47:18.495Z,20.44
2022-09-06T05:49:19.955Z,20.44
2022-09-06T05:51:21.392Z,20.43
2022-09-06T05:53:22.726Z,20.42
2022-09-06T05:55:24.083Z,20.41
2022-09-06T05:57:25.455Z,20.41
2022-09-06T05:59:26.959Z,20.42
2022-09-06T06:01:28.402Z,20.42
2022-09-06T06:03:29.771Z,20.41
2022-09-06T06:05:31.135Z,20.42
2022-09-06T06:07:32.451Z,19.47
2022-09-06T06:09:33.811Z,20.41
2022-09-06T06:11:35.620Z,20.40
2022-09-06T06:13:39.589Z,20.41
2022-09-06T06:15:41.210Z,20.41
2022-09-06T06:17:42.538Z,20.42
2022-09-06T06:19:43.923Z,20.41
2022-09-06T06:21:45.279Z,20.42
2022-09-06T06:23:47.452Z,20.42
2022-09-06T06:25:48.796Z,20.41
2022-09-06T06:27:50.110Z,20.42
2022-09-06T06:29:52.425Z,20.42
2022-09-06T06:31:53.849Z,20.40
2022-09-06T06:33:55.235Z,20.40
2022-09-06T06:35:56.554Z,20.41
2022-09-06T06:37:57.939Z,20.39
2022-09-06T06:39:59.324Z,20.39
2022-09-06T06:42:00.686Z,20.39
2022-09-06T06:44:02.027Z,20.40
2022-09-06T06:46:03.398Z,20.40
2022-09-06T06:48:04.838Z,20.38
2022-09-06T06:50:06.199Z,20.40
2022-09-06T06:52:07.562Z,20.39
2022-09-06T06:54:08.923Z,20.41
2022-09-06T06:56:10.252Z,20.40
2022-09-06T06:58:11.616Z,20.40
2022-09-06T07:00:13.066Z,20.40
2022-09-06T07:02:16.592Z,20.41
2022-09-06T07:04:18.116Z,20.39
2022-09-06T07:06:19.742Z,20.40
2022-09-06T07:08:21.169Z,20.40
2022-09-06T07:10:37.803Z,20.40
2022-09-06T07:12:39.126Z,20.40
2022-09-06T07:14:40.442Z,20.40
2022-09-06T07:16:41.860Z,20.40
2022-09-06T07:18:43.259Z,20.39
2022-09-06T07:25:27.448Z,20.41
2022-09-06T07:29:50.287Z,20.43
2022-09-06T07:34:14.603Z,20.44
2022-09-06T07:36:15.958Z,20.46
2022-09-06T07:38:17.310Z,20.47
2022-09-06T07:40:18.623Z,20.47
2022-09-06T07:42:19.934Z,20.46
2022-09-06T07:44:21.266Z,20.45
2022-09-06T07:46:22.706Z,20.46
2022-09-06T07:48:24.064Z,20.46
2022-09-06T07:55:08.039Z,20.52
2022-09-06T07:57:10.869Z,20.55
2022-09-06T07:59:12.649Z,20.57
2022-09-06T08:01:14.023Z,20.61
2022-09-06T08:03:15.388Z,20.63
2022-09-06T08:09:44.262Z,20.62
2022-09-06T08:11:45.578Z,20.60
2022-09-06T08:13:47.611Z,20.58
2022-09-06T08:15:49.047Z,20.58
2022-09-06T08:17:50.522Z,20.58
2022-09-06T08:19:51.847Z,20.57
2022-09-06T08:21:53.194Z,20.57
2022-09-06T08:23:54.515Z,20.57
2022-09-06T08:25:55.834Z,20.57
2022-09-06T08:27:57.143Z,20.58
2022-09-06T08:29:58.454Z,20.57
2022-09-06T08:31:59.804Z,20.57
2022-09-06T08:34:01.275Z,20.56
2022-09-06T08:36:02.675Z,19.61
2022-09-06T08:38:05.422Z,20.56
2022-09-06T08:40:06.817Z,20.53
2022-09-06T08:42:08.202Z,20.53
2022-09-06T08:46:31.165Z,20.51
2022-09-06T08:48:32.568Z,20.51
2022-09-06T08:50:33.882Z,20.50
2022-09-06T08:52:35.297Z,20.50
2022-09-06T08:54:36.608Z,20.50
2022-09-06T08:56:37.920Z,20.49
2022-09-06T08:58:39.279Z,20.50
2022-09-06T09:00:42.132Z,20.49
2022-09-06T09:02:43.900Z,20.49
2022-09-06T09:04:45.547Z,20.49
2022-09-06T09:06:46.863Z,20.50
2022-09-06T09:08:48.262Z,20.50
2022-09-06T09:10:49.618Z,20.50
2022-09-06T09:12:50.943Z,20.51
2022-09-06T09:14:52.252Z,20.51
2022-09-06T09:16:53.599Z,20.51
2022-09-06T09:18:54.981Z,20.51
2022-09-06T09:20:56.345Z,20.51
2022-09-06T09:22:57.699Z,20.51
2022-09-06T09:24:59.075Z,20.51
2022-09-06T09:27:00.419Z,20.51
2022-09-06T09:29:01.790Z,20.51
2022-09-06T09:31:03.149Z,20.51
2022-09-06T09:33:04.499Z,20.53
2022-09-06T09:35:05.810Z,20.55
2022-09-06T09:39:28.506Z,20.54
2022-09-06T09:41:30.054Z,20.57
2022-09-06T09:43:32.079Z,20.61
2022-09-06T09:45:33.392Z,20.64
2022-09-06T09:47:34.744Z,20.63
2022-09-06T09:49:36.454Z,20.61
2022-09-06T09:51:37.812Z,20.60
2022-09-06T09:53:39.467Z,20.60
2022-09-06T09:55:40.786Z,20.58
2022-09-06T09:57:42.102Z,20.58
2022-09-06T09:59:43.464Z,20.57
2022-09-06T10:01:44.856Z,20.56
2022-09-06T10:08:28.926Z,20.53
2022-09-06T10:10:30.330Z,20.51
2022-09-06T10:12:31.683Z,20.51
2022-09-06T10:14:33.159Z,20.50
2022-09-06T10:16:34.562Z,20.50
2022-09-06T10:18:35.971Z,20.48
2022-09-06T10:20:37.296Z,20.48
2022-09-06T10:22:38.609Z,20.47
2022-09-06T10:24:39.958Z,20.47
2022-09-06T10:26:41.279Z,20.46
2022-09-06T10:28:42.586Z,20.46
2022-09-06T10:30:43.939Z,20.46
2022-09-06T10:32:45.964Z,20.45
2022-09-06T10:34:47.283Z,20.45
2022-09-06T10:36:48.643Z,20.45
2022-09-06T10:38:49.971Z,20.44
2022-09-06T10:40:51.274Z,20.43
2022-09-06T10:42:56.222Z,20.43
2022-09-06T10:44:57.664Z,20.43
2022-09-06T10:46:59.317Z,20.41
2022-09-06T10:49:00.810Z,20.42
2022-09-06T10:51:02.202Z,20.40
2022-09-06T10:53:03.568Z,20.41
2022-09-06T10:55:05.619Z,20.38
2022-09-06T10:57:08.970Z,20.38
2022-09-06T11:01:31.726Z,20.38
2022-09-06T11:05:54.507Z,20.37
2022-09-06T11:10:17.184Z,20.37
2022-09-06T11:12:18.579Z,20.36
2022-09-06T11:14:19.891Z,20.37
2022-09-06T11:16:21.686Z,20.38
2022-09-06T11:18:23.130Z,20.40
2022-09-06T11:20:27.399Z,20.40
2022-09-06T11:22:31.199Z,20.41
2022-09-06T11:24:32.515Z,20.41
2022-09-06T11:26:34.703Z,20.43
2022-09-06T11:28:36.044Z,20.42
2022-09-06T11:30:37.433Z,20.42
2022-09-06T11:32:38.845Z,20.42
2022-09-06T11:34:41.195Z,20.41
2022-09-06T11:36:42.515Z,20.41
2022-09-06T11:38:43.859Z,20.41
2022-09-06T11:40:45.193Z,20.41
2022-09-06T11:42:47.742Z,20.41
2022-09-06T11:44:49.139Z,20.41
2022-09-06T11:46:50.472Z,20.40
2022-09-06T11:48:51.923Z,20.41
2022-09-06T11:50:53.334Z,19.55
2022-09-06T11:52:54.651Z,20.40
2022-09-06T11:54:55.964Z,20.40
2022-09-06T11:56:57.361Z,20.40
2022-09-06T11:58:58.725Z,20.39
2022-09-06T12:01:00.182Z,20.38
2022-09-06T12:05:22.847Z,20.35
2022-09-06T12:07:24.191Z,20.34
2022-09-06T12:09:25.503Z,20.34
2022-09-06T12:11:30.215Z,20.32
2022-09-06T12:13:31.891Z,20.33
2022-09-06T12:15:33.245Z,20.33
2022-09-06T12:17:34.556Z,20.33
2022-09-06T12:19:35.905Z,20.31
2022-09-06T12:21:37.219Z,20.30
2022-09-06T12:23:38.524Z,20.30
2022-09-06T12:25:41.122Z,20.31
2022-09-06T12:27:45.138Z,20.30
2022-09-06T12:29:46.494Z,20.31
2022-09-06T12:31:47.892Z,20.31
2022-09-06T12:33:49.250Z,20.32
2022-09-06T12:35:58.483Z,20.31
2022-09-06T12:38:00.277Z,20.31
2022-09-06T12:40:01.669Z,20.33
2022-09-06T12:42:03.095Z,20.37
2022-09-06T12:44:04.410Z,20.41
2022-09-06T12:46:05.760Z,20.45
2022-09-06T12:48:07.295Z,20.49
2022-09-06T12:50:08.632Z,20.53
2022-09-06T12:52:09.995Z,20.55
2022-09-06T12:54:11.351Z,20.56
2022-09-06T12:56:12.752Z,20.59
2022-09-06T12:58:14.190Z,20.62
2022-09-06T13:00:15.499Z,20.64
2022-09-06T13:02:17.039Z,20.65
2022-09-06T13:04:19.142Z,20.64
2022-09-06T13:06:26.061Z,20.65
2022-09-06T13:08:28.523Z,20.63
2022-09-06T13:10:30.022Z,20.58
2022-09-06T13:12:31.391Z,20.55
2022-09-06T13:14:32.704Z,20.54
2022-09-06T13:16:34.050Z,20.52
2022-09-06T13:18:35.555Z,20.50
2022-09-06T13:20:36.886Z,20.48
2022-09-06T13:22:38.839Z,20.49
2022-09-06T13:24:44.653Z,20.49
2022-09-06T13:26:48.377Z,20.51
2022-09-06T13:28:49.685Z,20.53
2022-09-06T13:30:51.035Z,20.53
2022-09-06T13:32:52.434Z,20.52
2022-09-06T13:34:56.978Z,20.52
2022-09-06T13:36:58.310Z,20.50
2022-09-06T13:39:04.085Z,20.49
2022-09-06T13:41:12.570Z,20.51
2022-09-06T13:43:15.071Z,20.50
2022-09-06T13:45:16.407Z,20.48
2022-09-06T13:47:17.721Z,20.46
2022-09-06T13:49:19.059Z,20.46
2022-09-06T13:51:20.411Z,20.50
2022-09-06T13:53:21.801Z,20.48
2022-09-06T13:55:23.143Z,20.52
2022-09-06T13:57:24.853Z,20.88
2022-09-06T13:59:26.306Z,21.12
2022-09-06T14:01:27.695Z,20.98
2022-09-06T14:03:29.045Z,20.79
2022-09-06T14:05:30.385Z,20.91
2022-09-06T14:07:31.707Z,21.23
2022-09-06T14:09:33.374Z,21.42
2022-09-06T14:11:34.702Z,21.54
2022-09-06T14:13:36.198Z,21.62
2022-09-06T14:15:37.626Z,21.93
2022-09-06T14:17:39.309Z,22.47
2022-09-06T14:19:41.406Z,22.44
2022-09-06T14:21:43.299Z,22.54
2022-09-06T14:23:44.615Z,22.38
2022-09-06T14:25:45.927Z,22.21
2022-09-06T14:27:48.644Z,22.27
2022-09-06T14:29:50.011Z,22.16
2022-09-06T14:31:51.420Z,22.16
2022-09-06T14:33:52.875Z,22.23
2022-09-06T14:35:54.191Z,22.28
2022-09-06T14:37:55.521Z,22.37
2022-09-06T14:39:57.736Z,22.43
2022-09-06T14:41:59.169Z,22.39
2022-09-06T14:44:00.557Z,22.38
2022-09-06T14:46:02.065Z,22.71
2022-09-06T14:48:03.471Z,22.23
2022-09-06T14:50:04.783Z,21.79
2022-09-06T14:52:06.091Z,21.55
2022-09-06T14:54:07.589Z,21.41
2022-09-06T14:56:08.953Z,21.33
2022-09-06T14:58:10.255Z,21.28
2022-09-06T15:00:11.860Z,21.25
2022-09-06T15:02:13.309Z,21.21
2022-09-06T15:04:14.692Z,20.29
2022-09-06T15:06:15.994Z,21.18
2022-09-06T15:08:17.522Z,21.16
2022-09-06T15:10:19.371Z,21.15
2022-09-06T15:12:20.827Z,21.13
2022-09-06T15:14:22.593Z,21.13
2022-09-06T15:16:24.302Z,21.58
2022-09-06T15:18:25.613Z,21.99
2022-09-06T15:20:26.975Z,22.23
2022-09-06T15:22:28.274Z,22.35
2022-09-06T15:24:29.575Z,22.25
2022-09-06T15:26:30.938Z,22.31
2022-09-06T15:28:32.244Z,22.52
2022-09-06T15:30:33.551Z,22.33
2022-09-06T15:32:34.893Z,22.30
2022-09-06T15:34:36.203Z,22.52
2022-09-06T15:36:37.596Z,22.48
2022-09-06T15:38:38.994Z,22.45
2022-09-06T15:40:40.298Z,22.47
2022-09-06T15:42:42.574Z,22.61
2022-09-06T15:44:43.895Z,22.61
2022-09-06T15:46:45.322Z,22.62
2022-09-06T15:48:46.621Z,22.57
2022-09-06T15:50:51.546Z,22.57
2022-09-06T15:52:53.302Z,22.86
2022-09-06T15:55:13.495Z,22.60
2022-09-06T15:57:16.243Z,22.13
2022-09-06T15:59:17.579Z,22.41
2022-09-06T16:01:18.977Z,22.70
2022-09-06T16:03:20.299Z,22.78
2022-09-06T16:07:44.642Z,22.62
2022-09-06T16:09:46.143Z,22.65
2022-09-06T16:11:47.447Z,22.64
2022-09-06T16:13:50.099Z,22.60
2022-09-06T16:15:51.440Z,22.58
2022-09-06T16:17:54.048Z,22.81
2022-09-06T16:19:55.364Z,22.35
2022-09-06T16:21:58.705Z,22.45
2022-09-06T16:24:00.100Z,22.58
2022-09-06T16:28:02.711Z,22.72
2022-09-06T16:30:04.026Z,23.24
2022-09-06T16:32:05.369Z,23.00
2022-09-06T16:34:06.764Z,22.93
2022-09-06T16:36:09.654Z,22.97
2022-09-06T16:38:10.973Z,22.99
2022-09-06T16:40:12.428Z,23.02
2022-09-06T16:42:13.775Z,23.04
2022-09-06T16:44:16.567Z,23.10
2022-09-06T16:46:18.535Z,22.66
2022-09-06T16:48:19.885Z,22.34
2022-09-06T16:50:22.079Z,22.13
2022-09-06T16:52:23.782Z,22.00
2022-09-06T16:54:25.091Z,21.93
2022-09-06T16:56:26.504Z,21.87
2022-09-06T16:58:29.994Z,21.82
2022-09-06T17:00:31.495Z,21.78
2022-09-06T17:02:32.850Z,21.76
2022-09-06T17:04:34.207Z,21.73
2022-09-06T17:06:42.143Z,21.85
2022-09-06T17:08:43.510Z,22.34
2022-09-06T17:10:44.818Z,22.67
2022-09-06T17:12:46.167Z,22.71
2022-09-06T17:14:47.519Z,22.73
2022-09-06T17:17:07.475Z,22.72
2022-09-06T17:19:09.195Z,22.68
2022-09-06T17:21:10.503Z,22.69
2022-09-06T17:23:11.857Z,22.67
2022-09-06T17:25:13.859Z,22.80
2022-09-06T17:27:15.464Z,22.74
2022-09-06T17:29:16.815Z,22.76
2022-09-06T17:31:22.276Z,22.70
2022-09-06T17:33:27.928Z,22.78
2022-09-06T17:35:29.427Z,22.25
2022-09-06T17:37:32.710Z,22.89
2022-09-06T17:39:34.158Z,22.88
2022-09-06T17:41:36.685Z,23.04
2022-09-06T17:43:38.190Z,22.51
2022-09-06T17:45:39.626Z,22.19
2022-09-06T17:47:40.962Z,22.05
2022-09-06T17:49:42.528Z,21.97
2022-09-06T17:51:43.867Z,21.92
2022-09-06T17:53:46.755Z,21.87
2022-09-06T17:55:52.961Z,21.85
2022-09-06T17:57:54.348Z,21.83
2022-09-06T18:00:03.022Z,21.80
2022-09-06T18:02:04.775Z,21.78
2022-09-06T18:04:06.287Z,21.75
2022-09-06T18:06:08.113Z,21.74
2022-09-06T18:08:09.425Z,21.74
2022-09-06T18:10:10.911Z,21.71
2022-09-06T18:12:13.921Z,21.70
2022-09-06T18:14:17.191Z,21.71
2022-09-06T18:16:21.475Z,22.00
2022-09-06T18:18:23.136Z,22.18
2022-09-06T18:20:24.900Z,22.61
2022-09-06T18:22:26.260Z,22.80
2022-09-06T18:24:28.612Z,22.79
2022-09-06T18:26:31.008Z,22.75
2022-09-06T18:28:32.332Z,22.77
2022-09-06T18:30:34.113Z,22.77
2022-09-06T18:32:35.859Z,22.70
2022-09-06T18:34:37.491Z,22.69
2022-09-06T18:36:38.912Z,22.70
2022-09-06T18:38:40.321Z,22.69
2022-09-06T18:40:41.692Z,22.72
2022-09-06T18:42:43.276Z,22.78
2022-09-06T18:44:45.298Z,22.84
2022-09-06T18:46:47.096Z,22.88
2022-09-06T18:48:48.499Z,22.95
2022-09-06T18:50:50.314Z,23.04
2022-09-06T18:52:52.790Z,23.12
2022-09-06T18:54:54.107Z,22.86
2022-09-06T18:56:55.446Z,22.43
2022-09-06T18:58:58.153Z,22.64
2022-09-06T19:00:59.927Z,22.80
2022-09-06T19:03:02.565Z,22.86
2022-09-06T19:05:04.131Z,23.00
2022-09-06T19:07:05.456Z,22.98
2022-09-06T19:09:06.823Z,22.97
2022-09-06T19:11:09.212Z,23.03
2022-09-06T19:13:10.520Z,23.10
2022-09-06T19:15:11.873Z,23.11
2022-09-06T19:17:13.558Z,23.16
2022-09-06T19:19:16.375Z,23.21
2022-09-06T19:21:17.778Z,23.16
2022-09-06T19:23:19.507Z,23.22
2022-09-06T19:25:21.175Z,23.27
2022-09-06T19:27:22.639Z,23.33
2022-09-06T19:29:23.989Z,23.33
2022-09-06T19:31:25.641Z,22.85
2022-09-06T19:33:27.259Z,22.87
2022-09-06T19:35:28.602Z,22.99
2022-09-06T19:37:30.075Z,23.10
2022-09-06T19:39:36.831Z,23.20
2022-09-06T19:41:38.649Z,23.29
2022-09-06T19:43:39.980Z,23.31
2022-09-06T19:45:41.381Z,23.26
2022-09-06T19:47:43.074Z,23.28
2022-09-06T19:49:44.783Z,23.28
2022-09-06T19:51:46.639Z,23.31
2022-09-06T19:53:48.135Z,23.29
2022-09-06T19:55:49.451Z,23.29
2022-09-06T19:57:50.773Z,23.29
2022-09-06T19:59:52.937Z,23.34
2022-09-06T20:01:54.345Z,23.40
2022-09-06T20:03:55.742Z,23.36
2022-09-06T20:05:57.107Z,23.45
2022-09-06T20:07:58.417Z,23.45
2022-09-06T20:09:59.722Z,22.86
2022-09-06T20:12:01.046Z,22.63
2022-09-06T20:14:02.375Z,22.48
2022-09-06T20:16:04.010Z,22.36
2022-09-06T20:18:05.355Z,22.25
2022-09-06T20:20:06.695Z,22.20
2022-09-06T20:22:08.046Z,22.16
2022-09-06T20:24:09.428Z,22.10
2022-09-06T20:26:10.880Z,22.06
2022-09-06T20:28:12.192Z,22.04
2022-09-06T20:30:13.505Z,22.02
2022-09-06T20:32:14.851Z,21.98
2022-09-06T20:34:16.227Z,21.96
2022-09-06T20:36:17.539Z,21.93
2022-09-06T20:38:18.971Z,21.91
2022-09-06T20:40:20.302Z,21.92
2022-09-06T20:42:21.612Z,21.90
2022-09-06T20:44:22.917Z,21.87
2022-09-06T20:46:24.395Z,21.85
2022-09-06T20:48:25.846Z,21.85
2022-09-06T20:50:27.251Z,21.85
2022-09-06T20:52:28.573Z,21.81
2022-09-06T20:54:29.923Z,21.80
2022-09-06T20:56:31.376Z,21.78
2022-09-06T20:58:32.685Z,21.77
2022-09-06T21:00:34.122Z,21.74
2022-09-06T21:02:35.486Z,21.73
2022-09-06T21:04:36.887Z,21.71
2022-09-06T21:06:38.199Z,21.70
2022-09-06T21:08:42.733Z,21.68
2022-09-06T21:10:44.466Z,21.67
2022-09-06T21:12:46.123Z,21.65
2022-09-06T21:14:48.395Z,21.65
2022-09-06T21:16:49.741Z,21.63
2022-09-06T21:18:51.627Z,21.62
2022-09-06T21:20:52.941Z,21.61
2022-09-06T21:22:54.247Z,21.59
2022-09-06T21:24:55.561Z,21.58
2022-09-06T21:26:56.875Z,21.58
2022-09-06T21:28:58.264Z,21.57
2022-09-06T21:31:01.053Z,21.56
2022-09-06T21:33:02.714Z,21.56
2022-09-06T21:35:04.146Z,21.52
2022-09-06T21:37:05.463Z,21.52
2022-09-06T21:39:06.776Z,21.50
2022-09-06T21:41:08.086Z,21.48
2022-09-06T21:43:09.433Z,21.46
2022-09-06T21:45:10.748Z,21.47
2022-09-06T21:47:12.107Z,21.44
2022-09-06T21:49:13.503Z,21.44
2022-09-06T21:51:15.015Z,21.43
2022-09-06T21:53:16.386Z,21.44
2022-09-06T21:55:17.691Z,21.44
2022-09-06T21:57:19.071Z,21.47
2022-09-06T21:59:20.689Z,21.47
2022-09-06T22:01:22.847Z,21.50
2022-09-06T22:03:24.202Z,21.55
2022-09-06T22:05:25.515Z,21.63
2022-09-06T22:07:26.826Z,21.67
2022-09-06T22:09:28.211Z,21.68
2022-09-06T22:11:29.521Z,21.66
2022-09-06T22:13:30.839Z,21.68
2022-09-06T22:15:32.146Z,21.71
2022-09-06T22:17:33.454Z,21.70
2022-09-06T22:19:34.799Z,21.72
2022-09-06T22:21:36.167Z,21.71
2022-09-06T22:23:37.515Z,21.69
2022-09-06T22:25:38.826Z,21.65
2022-09-06T22:27:40.212Z,21.62
2022-09-06T22:29:41.714Z,21.61
2022-09-06T22:31:43.221Z,21.59
2022-09-06T22:33:44.694Z,21.58
2022-09-06T22:35:46.012Z,21.58
2022-09-06T22:37:47.370Z,21.57
2022-09-06T22:39:48.745Z,21.55
2022-09-06T22:41:50.171Z,21.54
2022-09-06T22:43:51.550Z,21.55
2022-09-06T22:45:53.285Z,21.54
2022-09-06T22:47:54.934Z,21.53
2022-09-06T22:49:56.427Z,21.51
2022-09-06T22:51:57.730Z,21.49
2022-09-06T22:53:59.043Z,20.62
2022-09-06T22:56:01.388Z,21.51
2022-09-06T22:58:02.698Z,21.52
2022-09-06T23:00:04.075Z,21.54
2022-09-06T23:02:05.382Z,21.52
2022-09-06T23:04:07.283Z,21.51
2022-09-06T23:06:08.674Z,21.50
2022-09-06T23:08:09.983Z,21.49
2022-09-06T23:10:11.986Z,21.47
2022-09-06T23:12:13.333Z,21.45
2022-09-06T23:14:14.634Z,21.44
2022-09-06T23:16:16.077Z,21.43
2022-09-06T23:18:17.411Z,21.41
2022-09-06T23:20:19.290Z,21.41
2022-09-06T23:22:20.611Z,21.39
2022-09-06T23:24:21.999Z,21.40
2022-09-06T23:26:23.358Z,21.40
2022-09-06T23:28:24.710Z,21.40
2022-09-06T23:30:26.182Z,21.40
2022-09-06T23:32:27.529Z,21.39
2022-09-06T23:34:28.908Z,21.41
2022-09-06T23:36:30.218Z,21.46
2022-09-06T23:38:31.628Z,21.47
2022-09-06T23:40:33.371Z,20.55
2022-09-06T23:42:34.705Z,21.42
2022-09-06T23:44:36.043Z,21.40
2022-09-06T23:46:37.403Z,21.39
2022-09-06T23:48:38.754Z,21.40
2022-09-06T23:50:40.109Z,21.48
2022-09-06T23:52:41.416Z,21.51
2022-09-06T23:54:42.760Z,21.53
2022-09-06T23:56:44.084Z,20.70
2022-09-06T23:58:45.395Z,21.53
